createdAt,value
2023-03-22T00:02:07.813Z,96742.38
2023-03-22T00:04:34.512Z,96738.50
2023-03-22T00:07:01.082Z,96738.38
2023-03-22T00:09:27.643Z,96732.78
2023-03-22T00:11:54.263Z,96734.31
2023-03-22T00:14:20.871Z,96730.28
2023-03-22T00:16:49.219Z,96728.41
2023-03-22T00:19:17.415Z,96732.19
2023-03-22T00:21:44.699Z,96725.66
2023-03-22T00:24:11.454Z,96728.59
2023-03-22T00:26:38.141Z,96730.91
2023-03-22T00:29:04.933Z,96729.81
2023-03-22T00:31:31.832Z,96730.41
2023-03-22T00:33:58.457Z,96729.31
2023-03-22T00:36:25.047Z,96730.88
2023-03-22T00:38:51.961Z,96730.09
2023-03-22T00:41:23.396Z,96735.53
2023-03-22T00:43:51.596Z,96737.09
2023-03-22T00:46:20.278Z,96730.53
2023-03-22T00:48:47.583Z,96722.75
2023-03-22T00:51:15.125Z,96709.06
2023-03-22T00:53:43.464Z,96721.66
2023-03-22T00:56:14.214Z,96720.91
2023-03-22T00:58:41.524Z,96716.06
2023-03-22T01:01:08.466Z,96723.41
2023-03-22T01:03:35.268Z,96724.03
2023-03-22T01:06:02.028Z,96719.03
2023-03-22T01:08:33.432Z,96720.75
2023-03-22T01:11:01.376Z,96712.34
2023-03-22T01:13:29.050Z,96705.63
2023-03-22T01:15:56.038Z,96691.00
2023-03-22T01:18:22.945Z,96701.91
2023-03-22T01:20:49.603Z,96703.13
2023-03-22T01:23:16.195Z,96705.34
2023-03-22T01:25:43.322Z,96696.94
2023-03-22T01:28:10.185Z,96696.31
2023-03-22T01:30:40.165Z,96710.94
2023-03-22T01:33:07.770Z,96703.47
2023-03-22T01:35:34.813Z,96708.44
2023-03-22T01:38:01.502Z,96709.09
2023-03-22T01:40:28.128Z,96715.34
2023-03-22T01:42:55.806Z,96710.00
2023-03-22T01:45:38.556Z,96709.53
2023-03-22T01:48:19.378Z,96710.31
2023-03-22T01:50:56.245Z,96712.06
2023-03-22T01:53:25.706Z,96713.44
2023-03-22T01:55:54.439Z,96710.94
2023-03-22T01:58:21.018Z,96713.31
2023-03-22T02:00:49.084Z,96722.47
2023-03-22T02:03:24.813Z,96724.06
2023-03-22T02:05:52.032Z,96727.00
2023-03-22T02:08:18.809Z,96726.88
2023-03-22T02:10:45.631Z,96729.19
2023-03-22T02:13:32.983Z,96710.31
2023-03-22T02:16:25.235Z,96734.03
2023-03-22T02:19:30.611Z,96734.63
2023-03-22T02:22:28.919Z,96735.41
2023-03-22T02:25:17.644Z,96739.31
2023-03-22T02:28:14.242Z,96735.59
2023-03-22T02:30:46.724Z,96742.31
2023-03-22T02:33:30.044Z,96744.31
2023-03-22T02:35:56.686Z,96748.38
2023-03-22T02:38:47.771Z,96741.81
2023-03-22T02:41:27.819Z,96753.84
2023-03-22T02:44:18.224Z,96754.59
2023-03-22T02:46:49.968Z,96760.38
2023-03-22T02:49:42.681Z,96758.38
2023-03-22T02:52:27.789Z,96751.84
2023-03-22T02:55:13.886Z,96742.63
2023-03-22T02:58:06.971Z,96764.78
2023-03-22T03:00:36.653Z,96757.59
2023-03-22T03:03:11.306Z,96761.50
2023-03-22T03:05:45.659Z,96766.31
2023-03-22T03:08:13.938Z,96762.16
2023-03-22T03:10:42.117Z,96762.78
2023-03-22T03:13:18.924Z,96756.41
2023-03-22T03:15:50.587Z,96768.72
2023-03-22T03:18:44.780Z,96773.84
2023-03-22T03:21:32.770Z,96778.84
2023-03-22T03:24:15.519Z,96774.63
2023-03-22T03:26:57.413Z,96782.44
2023-03-22T03:29:45.781Z,96785.06
2023-03-22T03:32:35.253Z,96788.69
2023-03-22T03:35:09.646Z,96784.16
2023-03-22T03:37:41.500Z,96791.13
2023-03-22T03:40:17.439Z,96783.81
2023-03-22T03:42:50.607Z,96787.72
2023-03-22T03:45:19.157Z,96790.84
2023-03-22T03:47:48.149Z,96784.75
2023-03-22T03:50:16.607Z,96798.00
2023-03-22T03:52:43.372Z,96802.38
2023-03-22T03:55:10.140Z,96804.38
2023-03-22T03:57:36.689Z,96809.53
2023-03-22T04:00:04.317Z,96802.50
2023-03-22T04:02:30.969Z,96810.44
2023-03-22T04:04:57.532Z,96805.13
2023-03-22T04:07:24.157Z,96812.34
2023-03-22T04:09:50.905Z,96819.34
2023-03-22T04:12:17.536Z,96810.78
2023-03-22T04:14:44.951Z,96815.00
2023-03-22T04:17:11.394Z,96823.88
2023-03-22T04:19:37.914Z,96819.50
2023-03-22T04:22:04.459Z,96819.19
2023-03-22T04:24:31.019Z,96818.41
2023-03-22T04:26:57.585Z,96823.84
2023-03-22T04:29:24.635Z,96823.53
2023-03-22T04:31:53.057Z,96827.13
2023-03-22T04:34:19.665Z,96830.06
2023-03-22T04:36:47.024Z,96833.16
2023-03-22T04:39:13.741Z,96834.03
2023-03-22T04:41:40.408Z,96834.69
2023-03-22T04:44:07.760Z,96834.88
2023-03-22T04:46:35.449Z,96829.88
2023-03-22T04:49:02.163Z,96838.44
2023-03-22T04:51:29.056Z,96839.38
2023-03-22T04:53:55.743Z,96836.56
2023-03-22T04:56:22.565Z,96839.22
2023-03-22T04:58:49.131Z,96835.63
2023-03-22T05:01:17.830Z,96849.81
2023-03-22T05:03:48.588Z,96851.84
2023-03-22T05:06:15.875Z,96847.66
2023-03-22T05:08:42.716Z,96844.56
2023-03-22T05:11:13.188Z,96851.25
2023-03-22T05:13:40.755Z,96867.47
2023-03-22T05:16:08.129Z,96855.03
2023-03-22T05:18:35.109Z,96863.31
2023-03-22T05:21:03.906Z,96862.09
2023-03-22T05:23:30.640Z,96862.25
2023-03-22T05:25:58.367Z,96864.72
2023-03-22T05:28:27.186Z,96867.09
2023-03-22T05:30:56.569Z,96871.28
2023-03-22T05:33:23.598Z,96869.13
2023-03-22T05:35:51.248Z,96867.72
2023-03-22T05:38:18.063Z,96874.41
2023-03-22T05:40:45.213Z,96874.41
2023-03-22T05:43:12.468Z,96874.28
2023-03-22T05:45:39.176Z,96873.78
2023-03-22T05:48:06.583Z,96878.63
2023-03-22T05:50:33.709Z,96881.31
2023-03-22T05:53:00.508Z,96879.56
2023-03-22T05:55:27.328Z,96876.31
2023-03-22T05:57:54.832Z,96875.06
2023-03-22T06:00:21.908Z,96868.19
2023-03-22T06:02:49.734Z,96873.81
2023-03-22T06:05:17.547Z,96879.13
2023-03-22T06:07:44.926Z,96876.94
2023-03-22T06:10:13.138Z,96873.50
2023-03-22T06:12:39.714Z,96879.13
2023-03-22T06:15:07.014Z,96875.06
2023-03-22T06:17:33.849Z,96886.59
2023-03-22T06:20:00.415Z,96892.38
2023-03-22T06:22:27.108Z,96886.94
2023-03-22T06:24:53.653Z,96887.56
2023-03-22T06:27:20.381Z,96886.00
2023-03-22T06:29:50.848Z,96892.22
2023-03-22T06:32:19.097Z,96885.38
2023-03-22T06:34:45.780Z,96893.78
2023-03-22T06:37:12.329Z,96894.09
2023-03-22T06:39:38.926Z,96904.22
2023-03-22T06:42:05.737Z,96899.38
2023-03-22T06:44:32.240Z,96898.47
2023-03-22T06:46:58.780Z,96910.63
2023-03-22T06:49:26.542Z,96912.03
2023-03-22T06:51:53.057Z,96907.81
2023-03-22T06:54:19.710Z,96893.28
2023-03-22T06:56:46.440Z,96895.16
2023-03-22T06:59:13.021Z,96899.06
2023-03-22T07:01:39.634Z,96897.50
2023-03-22T07:04:06.493Z,96901.56
2023-03-22T07:06:33.185Z,96906.81
2023-03-22T07:08:59.791Z,96912.59
2023-03-22T07:11:26.597Z,96908.81
2023-03-22T07:13:54.607Z,96908.59
2023-03-22T07:16:22.433Z,96914.44
2023-03-22T07:18:49.361Z,96918.09
2023-03-22T07:21:16.273Z,96910.31
2023-03-22T07:23:43.167Z,96916.84
2023-03-22T07:26:09.677Z,96917.50
2023-03-22T07:28:36.209Z,96921.00
2023-03-22T07:31:09.926Z,96925.13
2023-03-22T07:33:36.483Z,96924.97
2023-03-22T07:36:03.475Z,96929.00
2023-03-22T07:38:29.984Z,96932.81
2023-03-22T07:40:56.530Z,96941.19
2023-03-22T07:43:23.242Z,96945.78
2023-03-22T07:45:50.995Z,96933.81
2023-03-22T07:48:19.908Z,96917.94
2023-03-22T07:50:47.335Z,96931.84
2023-03-22T07:53:14.267Z,96946.91
2023-03-22T07:55:44.383Z,96942.66
2023-03-22T07:58:11.007Z,96947.50
2023-03-22T08:00:37.858Z,96948.16
2023-03-22T08:03:04.749Z,96953.41
2023-03-22T08:05:31.411Z,96952.97
2023-03-22T08:07:57.920Z,96947.47
2023-03-22T08:10:24.439Z,96946.16
2023-03-22T08:12:51.346Z,96942.50
2023-03-22T08:15:18.002Z,96946.22
2023-03-22T08:17:44.709Z,96940.81
2023-03-22T08:20:12.907Z,96939.16
2023-03-22T08:22:39.582Z,96937.72
2023-03-22T08:25:07.236Z,96939.91
2023-03-22T08:27:33.830Z,96929.66
2023-03-22T08:30:00.929Z,96927.19
2023-03-22T08:32:27.550Z,96936.69
2023-03-22T08:34:54.157Z,96945.81
2023-03-22T08:37:20.777Z,96928.47
2023-03-22T08:39:47.370Z,96942.81
2023-03-22T08:42:13.918Z,96949.34
2023-03-22T08:44:40.633Z,96946.97
2023-03-22T08:47:07.427Z,96958.50
2023-03-22T08:49:34.189Z,96932.94
2023-03-22T08:52:00.848Z,96951.03
2023-03-22T08:54:33.682Z,96944.19
2023-03-22T08:57:00.700Z,96957.84
2023-03-22T08:59:27.908Z,96946.75
2023-03-22T09:01:54.692Z,96947.84
2023-03-22T09:04:21.346Z,96950.84
2023-03-22T09:06:47.939Z,96951.09
2023-03-22T09:09:14.848Z,96918.41
2023-03-22T09:11:42.869Z,96951.19
2023-03-22T09:14:10.786Z,96949.38
2023-03-22T09:16:37.629Z,96945.13
2023-03-22T09:19:04.371Z,96951.75
2023-03-22T09:21:31.087Z,96953.13
2023-03-22T09:23:57.641Z,96961.72
2023-03-22T09:26:25.618Z,96960.38
2023-03-22T09:28:52.335Z,96964.28
2023-03-22T09:31:20.583Z,96956.88
2023-03-22T09:33:47.858Z,96957.88
2023-03-22T09:36:14.468Z,96976.84
2023-03-22T09:38:42.098Z,96972.00
2023-03-22T09:41:16.241Z,96977.16
2023-03-22T09:43:48.655Z,96979.06
2023-03-22T09:46:29.914Z,96971.63
2023-03-22T09:48:59.390Z,96978.06
2023-03-22T09:51:38.767Z,96970.59
2023-03-22T09:54:14.236Z,96965.41
2023-03-22T09:56:41.056Z,96969.94
2023-03-22T09:59:34.127Z,96973.72
2023-03-22T10:02:04.817Z,96978.41
2023-03-22T10:04:57.559Z,96962.19
2023-03-22T10:07:38.693Z,96950.16
2023-03-22T10:10:18.568Z,96953.28
2023-03-22T10:13:06.700Z,96940.66
2023-03-22T10:15:43.321Z,96956.22
2023-03-22T10:18:21.733Z,96959.19
2023-03-22T10:21:05.189Z,96959.47
2023-03-22T10:23:35.379Z,96962.91
2023-03-22T10:26:04.018Z,96953.94
2023-03-22T10:28:48.259Z,96975.56
2023-03-22T10:31:21.331Z,96955.50
2023-03-22T10:33:59.105Z,96963.47
2023-03-22T10:36:31.572Z,96962.28
2023-03-22T10:39:04.106Z,96954.28
2023-03-22T10:41:33.424Z,96948.50
2023-03-22T10:44:03.172Z,96950.81
2023-03-22T10:46:36.385Z,96969.97
2023-03-22T10:49:05.881Z,96977.28
2023-03-22T10:51:47.836Z,96968.00
2023-03-22T10:54:17.178Z,96970.06
2023-03-22T10:56:45.045Z,96959.75
2023-03-22T10:59:51.321Z,96965.44
2023-03-22T11:02:23.076Z,96964.34
2023-03-22T11:04:52.695Z,96963.50
2023-03-22T11:07:42.826Z,96967.69
2023-03-22T11:10:09.330Z,96969.16
2023-03-22T11:13:10.573Z,96959.72
2023-03-22T11:15:48.958Z,96945.59
2023-03-22T11:18:17.459Z,96962.72
2023-03-22T11:20:55.816Z,96965.28
2023-03-22T11:23:24.307Z,96957.88
2023-03-22T11:25:55.624Z,96952.22
2023-03-22T11:28:36.670Z,96951.72
2023-03-22T11:31:25.996Z,96943.94
2023-03-22T11:33:58.651Z,96933.13
2023-03-22T11:36:26.456Z,96949.75
2023-03-22T11:39:07.271Z,96956.88
2023-03-22T11:41:39.325Z,96944.53
2023-03-22T11:44:10.892Z,96958.63
2023-03-22T11:46:38.601Z,96945.78
2023-03-22T11:49:09.321Z,96951.38
2023-03-22T11:51:38.896Z,96937.34
2023-03-22T11:54:32.011Z,96945.38
2023-03-22T11:57:02.873Z,96942.44
2023-03-22T11:59:36.444Z,96941.78
2023-03-22T12:02:24.117Z,96941.38
2023-03-22T12:04:57.397Z,96944.50
2023-03-22T12:07:26.024Z,96949.16
2023-03-22T12:10:00.109Z,96953.34
2023-03-22T12:12:33.266Z,96936.19
2023-03-22T12:15:05.090Z,96950.22
2023-03-22T12:18:07.722Z,96947.31
2023-03-22T12:20:49.364Z,96940.19
2023-03-22T12:23:19.676Z,96937.22
2023-03-22T12:26:11.607Z,96937.22
2023-03-22T12:28:56.835Z,96937.22
2023-03-22T12:31:36.230Z,96931.00
2023-03-22T12:34:19.660Z,96949.47
2023-03-22T12:36:55.573Z,96949.28
2023-03-22T12:39:37.885Z,96937.91
2023-03-22T12:42:17.815Z,96943.94
2023-03-22T12:44:55.536Z,96942.28
2023-03-22T12:48:07.985Z,96942.47
2023-03-22T12:50:45.016Z,96936.03
2023-03-22T12:53:15.622Z,96931.28
2023-03-22T12:55:44.616Z,96931.56
2023-03-22T12:58:18.417Z,96930.56
2023-03-22T13:01:01.298Z,96915.00
2023-03-22T13:03:37.144Z,96925.13
2023-03-22T13:06:28.074Z,96925.59
2023-03-22T13:09:09.883Z,96926.09
2023-03-22T13:11:36.676Z,96917.69
2023-03-22T13:14:03.590Z,96917.00
2023-03-22T13:16:55.700Z,96911.97
2023-03-22T13:19:33.213Z,96917.72
2023-03-22T13:22:21.111Z,96918.28
2023-03-22T13:25:10.013Z,96918.34
2023-03-22T13:27:45.642Z,96916.44
2023-03-22T13:30:33.395Z,96927.72
2023-03-22T13:33:15.046Z,96928.97
2023-03-22T13:35:46.627Z,96920.44
2023-03-22T13:38:16.656Z,96926.31
2023-03-22T13:41:10.873Z,96921.06
2023-03-22T13:43:43.362Z,96920.38
2023-03-22T13:46:22.159Z,96911.50
2023-03-22T13:48:54.125Z,96907.31
2023-03-22T13:51:21.092Z,96897.22
2023-03-22T13:54:16.493Z,96907.25
2023-03-22T13:57:01.078Z,96904.38
2023-03-22T13:59:27.843Z,96899.41
2023-03-22T14:02:00.067Z,96889.16
2023-03-22T14:04:40.716Z,96901.41
2023-03-22T14:07:20.146Z,96881.97
2023-03-22T14:09:53.044Z,96898.63
2023-03-22T14:12:28.296Z,96892.84
2023-03-22T14:15:02.499Z,96906.69
2023-03-22T14:17:32.161Z,96908.53
2023-03-22T14:20:00.002Z,96896.72
